createdAt,value
2017-08-10T00:00:36.916Z,15.1
2017-08-10T00:01:55.572Z,15.2
2017-08-10T00:03:14.263Z,15.2
2017-08-10T00:04:32.962Z,15.2
2017-08-10T00:05:51.616Z,15.2
2017-08-10T00:07:10.273Z,15.2
2017-08-10T00:08:28.923Z,15.2
2017-08-10T00:09:47.593Z,15.2
2017-08-10T00:11:06.242Z,15.2
2017-08-10T00:12:24.951Z,15.2
2017-08-10T00:13:43.605Z,15.1
2017-08-10T00:15:02.274Z,15.1
2017-08-10T00:16:20.928Z,15
2017-08-10T00:17:39.583Z,15
2017-08-10T00:18:58.271Z,15
2017-08-10T00:20:16.961Z,15
2017-08-10T00:21:35.638Z,14.9
2017-08-10T00:22:54.301Z,14.9
2017-08-10T00:24:12.975Z,14.9
2017-08-10T00:25:31.700Z,14.9
2017-08-10T00:26:50.389Z,14.9
2017-08-10T00:28:09.049Z,14.9
2017-08-10T00:29:27.754Z,14.9
2017-08-10T00:30:46.467Z,14.9
2017-08-10T00:32:05.164Z,14.9
2017-08-10T00:33:23.823Z,14.9
2017-08-10T00:34:42.544Z,15
2017-08-10T00:36:01.213Z,14.9
2017-08-10T00:37:19.876Z,14.9
2017-08-10T00:38:38.544Z,14.9
2017-08-10T00:39:57.224Z,14.9
2017-08-10T00:41:15.900Z,14.9
2017-08-10T00:42:34.590Z,14.9
2017-08-10T00:43:53.255Z,14.9
2017-08-10T00:45:11.913Z,14.9
2017-08-10T00:46:30.585Z,14.9
2017-08-10T00:47:49.247Z,14.9
2017-08-10T00:49:07.965Z,14.9
2017-08-10T00:50:26.649Z,14.9
2017-08-10T00:51:45.320Z,14.9
2017-08-10T00:53:04.014Z,14.8
2017-08-10T00:54:22.668Z,14.8
2017-08-10T00:55:41.351Z,14.8
2017-08-10T00:57:00.011Z,14.8
2017-08-10T00:58:18.720Z,14.8
2017-08-10T00:59:37.369Z,14.8
2017-08-10T01:00:56.032Z,14.8
2017-08-10T01:02:14.711Z,14.7
2017-08-10T01:03:33.360Z,14.7
2017-08-10T01:04:52.024Z,14.7
2017-08-10T01:06:10.706Z,14.7
2017-08-10T01:07:29.375Z,14.7
2017-08-10T01:08:48.072Z,14.7
2017-08-10T01:10:06.723Z,14.7
2017-08-10T01:11:25.380Z,14.7
2017-08-10T01:12:44.055Z,14.7
2017-08-10T01:14:02.781Z,14.7
2017-08-10T01:15:21.484Z,14.7
2017-08-10T01:16:40.183Z,14.7
2017-08-10T01:17:58.876Z,14.7
2017-08-10T01:19:17.570Z,14.7
2017-08-10T01:20:36.260Z,14.7
2017-08-10T01:21:54.928Z,14.7
2017-08-10T01:23:13.610Z,14.6
2017-08-10T01:24:32.257Z,14.7
2017-08-10T01:25:50.904Z,14.7
2017-08-10T01:27:09.562Z,14.7
2017-08-10T01:28:28.247Z,14.7
2017-08-10T01:29:46.913Z,14.7
2017-08-10T01:31:05.567Z,14.7
2017-08-10T01:32:24.262Z,14.7
2017-08-10T01:33:42.950Z,14.7
2017-08-10T01:35:01.635Z,14.7
2017-08-10T01:36:20.305Z,14.7
2017-08-10T01:37:39.038Z,14.7
2017-08-10T01:38:57.740Z,14.7
2017-08-10T01:40:16.435Z,14.7
2017-08-10T01:41:35.102Z,14.7
2017-08-10T01:42:53.761Z,14.7
2017-08-10T01:44:12.481Z,14.6
2017-08-10T01:45:31.167Z,14.6
2017-08-10T01:46:49.817Z,14.6
2017-08-10T01:48:08.522Z,14.6
2017-08-10T01:49:27.200Z,14.6
2017-08-10T01:50:45.855Z,14.6
2017-08-10T01:52:04.508Z,14.6
2017-08-10T01:53:23.185Z,14.6
2017-08-10T01:54:41.856Z,14.6
2017-08-10T01:56:00.504Z,14.6
2017-08-10T01:57:19.170Z,14.6
2017-08-10T01:58:37.840Z,14.6
2017-08-10T01:59:56.510Z,14.6
2017-08-10T02:01:15.169Z,14.6
2017-08-10T02:02:33.876Z,14.6
2017-08-10T02:03:52.606Z,14.5
2017-08-10T02:05:11.281Z,14.5
2017-08-10T02:06:29.976Z,14.4
2017-08-10T02:07:48.627Z,14.3
2017-08-10T02:09:07.302Z,14.3
2017-08-10T02:10:26.047Z,14.3
2017-08-10T02:11:44.738Z,14.3
2017-08-10T02:13:03.450Z,14.3
2017-08-10T02:14:22.105Z,14.3
2017-08-10T02:15:40.781Z,14.3
2017-08-10T02:16:59.440Z,14.3
2017-08-10T02:18:18.096Z,14.3
2017-08-10T02:19:36.788Z,14.3
2017-08-10T02:20:55.468Z,14.2
2017-08-10T02:22:14.183Z,14.2
2017-08-10T02:23:32.873Z,14.2
2017-08-10T02:24:51.538Z,14.2
2017-08-10T02:26:10.214Z,14.2
2017-08-10T02:27:28.862Z,14.2
2017-08-10T02:28:47.561Z,14.2
2017-08-10T02:30:06.264Z,14.2
2017-08-10T02:31:24.945Z,14.2
2017-08-10T02:32:43.597Z,14.2
2017-08-10T02:34:02.253Z,14.2
2017-08-10T02:35:20.942Z,14.2
2017-08-10T02:36:39.628Z,14.2
2017-08-10T02:37:58.281Z,14.1
2017-08-10T02:39:16.991Z,14.1
2017-08-10T02:40:35.661Z,14.1
2017-08-10T02:41:54.326Z,14.1
2017-08-10T02:43:12.990Z,14.1
2017-08-10T02:44:31.648Z,14.1
2017-08-10T02:45:50.299Z,14.1
2017-08-10T02:47:08.978Z,14.1
2017-08-10T02:48:27.653Z,14.1
2017-08-10T02:49:46.330Z,14.1
2017-08-10T02:51:05.018Z,14.1
2017-08-10T02:52:23.734Z,14.1
2017-08-10T02:53:42.420Z,14.1
2017-08-10T02:55:01.077Z,14.1
2017-08-10T02:56:19.794Z,14.2
2017-08-10T02:57:38.491Z,14.2
2017-08-10T02:58:57.175Z,14.2
2017-08-10T03:00:15.862Z,14.2
2017-08-10T03:01:34.513Z,14.2
2017-08-10T03:02:53.185Z,14.2
2017-08-10T03:04:11.890Z,14.2
2017-08-10T03:05:30.546Z,14.2
2017-08-10T03:06:49.197Z,14.2
2017-08-10T03:08:07.865Z,14.2
2017-08-10T03:09:26.519Z,14.2
2017-08-10T03:10:45.224Z,14.2
2017-08-10T03:12:03.901Z,14.2
2017-08-10T03:13:22.579Z,14.2
2017-08-10T03:14:41.284Z,14.2
2017-08-10T03:15:59.980Z,14.2
2017-08-10T03:17:18.643Z,14.2
2017-08-10T03:18:37.378Z,14.2
2017-08-10T03:19:56.074Z,14.2
2017-08-10T03:21:14.733Z,14.2
2017-08-10T03:22:33.394Z,14.2
2017-08-10T03:23:52.078Z,14.2
2017-08-10T03:25:10.804Z,14.2
2017-08-10T03:26:29.463Z,14.2
2017-08-10T03:27:48.137Z,14.2
2017-08-10T03:29:06.812Z,14.2
2017-08-10T03:30:25.465Z,14.2
2017-08-10T03:31:44.172Z,14.2
2017-08-10T03:33:02.826Z,14.2
2017-08-10T03:34:21.494Z,14.2
2017-08-10T03:35:40.153Z,14.2
2017-08-10T03:36:58.815Z,14.2
2017-08-10T03:38:17.511Z,14.2
2017-08-10T03:39:36.232Z,14.2
2017-08-10T03:40:54.889Z,14.2
2017-08-10T03:42:13.545Z,14.2
2017-08-10T03:43:32.263Z,14.2
2017-08-10T03:44:50.974Z,14.2
2017-08-10T03:46:09.668Z,14.2
2017-08-10T03:47:28.375Z,14.2
2017-08-10T03:48:47.076Z,14.2
2017-08-10T03:50:05.798Z,14.2
2017-08-10T03:51:24.475Z,14.2
2017-08-10T03:52:43.149Z,14.2
2017-08-10T03:54:01.795Z,14.2
2017-08-10T03:55:20.461Z,14.2
2017-08-10T03:56:39.148Z,14.2
2017-08-10T03:57:57.855Z,14.2
2017-08-10T03:59:16.535Z,14.2
2017-08-10T04:00:35.237Z,14.2
2017-08-10T04:01:53.891Z,14.3
2017-08-10T04:03:12.557Z,14.3
2017-08-10T04:04:31.217Z,14.2
2017-08-10T04:05:49.891Z,14.2
2017-08-10T04:07:08.580Z,14.2
2017-08-10T04:08:27.270Z,14.2
2017-08-10T04:09:45.923Z,14.2
2017-08-10T04:11:04.602Z,14.2
2017-08-10T04:12:23.311Z,14.2
2017-08-10T04:13:41.976Z,14.2
2017-08-10T04:15:00.656Z,14.2
2017-08-10T04:16:19.321Z,14.2
2017-08-10T04:17:37.978Z,14.2
2017-08-10T04:18:56.681Z,14.2
2017-08-10T04:20:15.346Z,14.2
2017-08-10T04:21:34.017Z,14.2
2017-08-10T04:22:52.664Z,14.2
2017-08-10T04:24:11.366Z,14.2
2017-08-10T04:25:30.080Z,14.2
2017-08-10T04:26:48.782Z,14.2
2017-08-10T04:28:07.433Z,14.2
2017-08-10T04:29:26.139Z,14.2
2017-08-10T04:30:44.808Z,14.1
2017-08-10T04:32:03.522Z,14.1
2017-08-10T04:33:22.195Z,14.1
2017-08-10T04:34:40.890Z,14.2
2017-08-10T04:35:59.545Z,14.2
2017-08-10T04:37:18.220Z,14.2
2017-08-10T04:38:36.892Z,14.3
2017-08-10T04:39:55.544Z,14.3
2017-08-10T04:41:14.223Z,14.3
2017-08-10T04:42:32.934Z,14.4
2017-08-10T04:43:51.637Z,14.4
2017-08-10T04:45:10.351Z,14.4
2017-08-10T04:46:29.026Z,14.4
2017-08-10T04:47:47.693Z,14.4
2017-08-10T04:49:06.350Z,14.4
2017-08-10T04:50:25.008Z,14.4
2017-08-10T04:51:43.690Z,14.4
2017-08-10T04:53:02.415Z,14.4
2017-08-10T04:54:21.076Z,14.4
2017-08-10T04:55:39.730Z,14.4
2017-08-10T04:56:58.389Z,14.4
2017-08-10T04:58:17.095Z,14.4
2017-08-10T04:59:35.799Z,14.5
2017-08-10T05:00:54.455Z,14.5
2017-08-10T05:02:13.124Z,14.5
2017-08-10T05:03:31.867Z,14.5
2017-08-10T05:04:50.535Z,14.5
2017-08-10T05:06:09.237Z,14.5
2017-08-10T05:07:27.888Z,14.5
2017-08-10T05:08:46.610Z,14.5
2017-08-10T05:10:05.338Z,14.6
2017-08-10T05:11:24.010Z,14.6
2017-08-10T05:12:42.665Z,14.5
2017-08-10T05:14:01.363Z,14.6
2017-08-10T05:15:20.021Z,14.6
2017-08-10T05:16:38.733Z,14.6
2017-08-10T05:17:57.408Z,14.6
2017-08-10T05:19:16.103Z,14.6
2017-08-10T05:20:34.808Z,14.6
2017-08-10T05:21:53.459Z,14.6
2017-08-10T05:23:12.117Z,14.5
2017-08-10T05:24:30.790Z,14.5
2017-08-10T05:25:49.443Z,14.6
2017-08-10T05:27:08.125Z,14.6
2017-08-10T05:28:26.807Z,14.6
2017-08-10T05:29:45.479Z,14.6
2017-08-10T05:31:04.163Z,14.5
2017-08-10T05:32:22.821Z,14.5
2017-08-10T05:33:41.542Z,14.5
2017-08-10T05:35:00.257Z,14.6
2017-08-10T05:36:18.913Z,14.6
2017-08-10T05:37:37.581Z,14.6
2017-08-10T05:38:56.229Z,14.6
2017-08-10T05:40:14.900Z,14.7
2017-08-10T05:41:33.563Z,14.7
2017-08-10T05:42:52.217Z,14.7
2017-08-10T05:44:10.912Z,14.8
2017-08-10T05:45:29.590Z,14.7
2017-08-10T05:46:48.299Z,14.7
2017-08-10T05:48:06.956Z,14.7
2017-08-10T05:49:25.633Z,14.7
2017-08-10T05:50:44.308Z,14.7
2017-08-10T05:52:03.007Z,14.7
2017-08-10T05:53:21.690Z,14.8
2017-08-10T05:54:40.381Z,14.8
2017-08-10T05:55:59.055Z,14.8
2017-08-10T05:57:17.737Z,14.8
2017-08-10T05:58:36.439Z,14.8
2017-08-10T05:59:55.139Z,14.9
2017-08-10T06:01:13.815Z,14.9
2017-08-10T06:02:32.463Z,14.9
2017-08-10T06:03:51.115Z,15
2017-08-10T06:05:09.819Z,15
2017-08-10T06:06:28.500Z,15
2017-08-10T06:07:47.207Z,15.1
2017-08-10T06:09:05.863Z,15.1
2017-08-10T06:10:24.516Z,15.1
2017-08-10T06:11:43.195Z,15.1
2017-08-10T06:13:01.855Z,15
2017-08-10T06:14:20.564Z,15
2017-08-10T06:15:39.220Z,15
2017-08-10T06:16:57.899Z,15
2017-08-10T06:18:16.583Z,15
2017-08-10T06:19:35.236Z,15.1
2017-08-10T06:20:53.967Z,15.2
2017-08-10T06:22:12.647Z,15.2
2017-08-10T06:23:31.361Z,15.2
2017-08-10T06:24:49.968Z,15.2
2017-08-10T06:26:08.607Z,15.3
2017-08-10T06:27:27.302Z,15.3
2017-08-10T06:28:45.995Z,15.4
2017-08-10T06:30:04.651Z,15.4
2017-08-10T06:31:23.313Z,15.5
2017-08-10T06:32:42.007Z,15.5
2017-08-10T06:34:00.662Z,15.5
2017-08-10T06:35:19.324Z,15.5
2017-08-10T06:36:38.003Z,15.6
2017-08-10T06:37:56.702Z,15.6
2017-08-10T06:39:15.360Z,15.6
2017-08-10T06:40:34.017Z,15.6
2017-08-10T06:41:52.666Z,15.5
2017-08-10T06:43:11.351Z,15.5
2017-08-10T06:44:30.002Z,15.6
2017-08-10T06:45:48.666Z,15.6
2017-08-10T06:47:07.330Z,15.7
2017-08-10T06:48:25.999Z,15.8
2017-08-10T06:49:44.648Z,15.9
2017-08-10T06:51:03.301Z,16
2017-08-10T06:52:21.975Z,16
2017-08-10T06:53:40.661Z,16
2017-08-10T06:54:59.316Z,16
2017-08-10T06:56:17.978Z,15.9
2017-08-10T06:57:36.648Z,16
2017-08-10T06:58:55.344Z,16
2017-08-10T07:00:13.996Z,16.1
2017-08-10T07:01:32.684Z,16.1
2017-08-10T07:02:51.367Z,16.2
2017-08-10T07:04:10.096Z,16.2
2017-08-10T07:05:28.786Z,16.2
2017-08-10T07:06:47.440Z,16.2
2017-08-10T07:08:06.106Z,16.1
2017-08-10T07:09:24.838Z,16.1
2017-08-10T07:10:43.506Z,16
2017-08-10T07:12:02.163Z,15.9
2017-08-10T07:13:20.826Z,15.8
2017-08-10T07:14:39.530Z,15.8
2017-08-10T07:15:58.191Z,15.8
2017-08-10T07:17:16.856Z,15.9
2017-08-10T07:18:35.508Z,16
2017-08-10T07:19:54.182Z,16
2017-08-10T07:21:12.891Z,16.1
2017-08-10T07:22:31.552Z,16.1
2017-08-10T07:23:50.225Z,16.1
2017-08-10T07:25:08.895Z,16.1
2017-08-10T07:26:27.547Z,16.2
2017-08-10T07:27:46.225Z,16.2
2017-08-10T07:29:04.885Z,16.3
2017-08-10T07:30:23.552Z,16.3
2017-08-10T07:31:42.197Z,16.3
2017-08-10T07:33:00.852Z,16.4
2017-08-10T07:34:19.511Z,16.4
2017-08-10T07:35:38.190Z,16.4
2017-08-10T07:36:56.851Z,16.4
2017-08-10T07:38:15.503Z,16.3
2017-08-10T07:39:34.207Z,16.3
2017-08-10T07:40:52.913Z,16.3
2017-08-10T07:42:11.578Z,16.4
2017-08-10T07:43:30.232Z,16.4
2017-08-10T07:44:48.894Z,16.4
2017-08-10T07:46:07.575Z,16.3
2017-08-10T07:47:26.258Z,16.3
2017-08-10T07:48:44.913Z,16.2
2017-08-10T07:50:03.590Z,16.1
2017-08-10T07:51:22.295Z,16.1
2017-08-10T07:52:40.950Z,16
2017-08-10T07:53:59.634Z,16.1
2017-08-10T07:55:18.305Z,16.2
2017-08-10T07:56:36.964Z,16.4
2017-08-10T07:57:55.619Z,16.5
2017-08-10T07:59:14.267Z,16.6
2017-08-10T08:00:32.925Z,16.6
2017-08-10T08:01:51.598Z,16.5
2017-08-10T08:03:10.307Z,16.5
2017-08-10T08:04:28.967Z,16.4
2017-08-10T08:05:47.624Z,16.2
2017-08-10T08:07:06.322Z,16.1
2017-08-10T08:08:24.971Z,16
2017-08-10T08:09:43.623Z,16
2017-08-10T08:11:02.312Z,16
2017-08-10T08:12:21.008Z,16
2017-08-10T08:13:39.666Z,16.1
2017-08-10T08:14:58.377Z,16.1
2017-08-10T08:16:17.038Z,16.1
2017-08-10T08:17:35.719Z,16.2
2017-08-10T08:18:54.380Z,16.3
2017-08-10T08:20:13.094Z,16.4
2017-08-10T08:21:31.798Z,16.5
2017-08-10T08:22:50.467Z,16.6
2017-08-10T08:24:09.129Z,16.7
2017-08-10T08:25:27.784Z,16.7
2017-08-10T08:26:46.454Z,16.8
2017-08-10T08:28:05.136Z,16.9
2017-08-10T08:29:23.783Z,16.8
2017-08-10T08:30:42.440Z,16.8
2017-08-10T08:32:01.132Z,16.8
2017-08-10T08:33:19.805Z,16.8
2017-08-10T08:34:38.459Z,16.9
2017-08-10T08:35:57.117Z,16.9
2017-08-10T08:37:15.819Z,16.9
2017-08-10T08:38:34.515Z,16.8
2017-08-10T08:39:53.167Z,16.8
2017-08-10T08:41:11.819Z,16.8
2017-08-10T08:42:30.518Z,16.8
2017-08-10T08:43:49.244Z,16.8
2017-08-10T08:45:07.928Z,16.7
2017-08-10T08:46:26.612Z,16.5
2017-08-10T08:47:45.271Z,16.4
2017-08-10T08:49:03.940Z,16.4
2017-08-10T08:50:22.653Z,16.4
2017-08-10T08:51:41.335Z,16.4
2017-08-10T08:53:00.031Z,16.4
2017-08-10T08:54:18.759Z,16.3
2017-08-10T08:55:37.411Z,16.3
2017-08-10T08:56:56.103Z,16.3
2017-08-10T08:58:14.781Z,16.2
2017-08-10T08:59:33.450Z,16.2
2017-08-10T09:00:52.116Z,16.3
2017-08-10T09:02:10.784Z,16.4
2017-08-10T09:03:29.475Z,16.5
2017-08-10T09:04:48.151Z,16.5
2017-08-10T09:06:06.858Z,16.5
2017-08-10T09:07:25.539Z,16.6
2017-08-10T09:08:44.249Z,16.7
2017-08-10T09:10:02.953Z,16.7
2017-08-10T09:11:21.612Z,16.7
2017-08-10T09:12:40.278Z,16.6
2017-08-10T09:13:58.955Z,16.6
2017-08-10T09:15:17.630Z,16.5
2017-08-10T09:16:36.312Z,16.5
2017-08-10T09:17:54.958Z,16.6
2017-08-10T09:19:13.610Z,16.6
2017-08-10T09:20:32.284Z,16.6
2017-08-10T09:21:50.970Z,16.6
2017-08-10T09:23:09.638Z,16.7
2017-08-10T09:24:28.298Z,16.7
2017-08-10T09:25:46.966Z,16.7
2017-08-10T09:27:05.631Z,16.8
2017-08-10T09:28:24.299Z,16.9
2017-08-10T09:29:43.021Z,17
2017-08-10T09:31:01.733Z,17
2017-08-10T09:32:20.419Z,17
2017-08-10T09:33:39.135Z,16.8
2017-08-10T09:34:57.795Z,16.8
2017-08-10T09:36:16.470Z,16.8
2017-08-10T09:37:35.124Z,16.6
2017-08-10T09:38:53.769Z,16.5
2017-08-10T09:40:12.423Z,16.4
2017-08-10T09:41:31.094Z,16.2
2017-08-10T09:42:49.773Z,16.2
2017-08-10T09:44:08.428Z,16.2
2017-08-10T09:45:27.106Z,16.2
2017-08-10T09:46:45.810Z,16.2
2017-08-10T09:48:04.497Z,16.2
2017-08-10T09:49:23.153Z,16.1
2017-08-10T09:50:41.813Z,16.1
2017-08-10T09:52:00.492Z,16.1
2017-08-10T09:53:19.165Z,16.1
2017-08-10T09:54:37.846Z,16.1
2017-08-10T09:55:56.501Z,16.1
2017-08-10T09:57:15.177Z,16.1
2017-08-10T09:58:33.834Z,16
2017-08-10T09:59:52.486Z,16
2017-08-10T10:01:11.203Z,16
2017-08-10T10:02:29.899Z,15.9
2017-08-10T10:03:48.598Z,15.9
2017-08-10T10:05:07.257Z,15.8
2017-08-10T10:06:25.914Z,15.9
2017-08-10T10:07:44.618Z,16
2017-08-10T10:09:03.277Z,16.1
2017-08-10T10:10:21.978Z,16.2
2017-08-10T10:11:40.666Z,16.4
2017-08-10T10:12:59.392Z,16.7
2017-08-10T10:14:18.051Z,16.9
2017-08-10T10:15:36.709Z,16.9
2017-08-10T10:16:55.390Z,17
2017-08-10T10:18:14.088Z,17
2017-08-10T10:19:32.741Z,17
2017-08-10T10:20:51.393Z,17.1
2017-08-10T10:22:10.043Z,17.1
2017-08-10T10:23:28.712Z,17.1
2017-08-10T10:24:47.411Z,17.2
2017-08-10T10:26:06.067Z,17.4
2017-08-10T10:27:24.717Z,17.4
2017-08-10T10:28:43.387Z,17.4
2017-08-10T10:30:02.040Z,17.4
2017-08-10T10:31:20.716Z,17.5
2017-08-10T10:32:39.444Z,17.4
2017-08-10T10:33:58.148Z,17.4
2017-08-10T10:35:16.810Z,17.3
2017-08-10T10:36:35.493Z,17.1
2017-08-10T10:37:54.189Z,17.2
2017-08-10T10:39:12.912Z,17.3
2017-08-10T10:40:31.565Z,17.4
2017-08-10T10:41:50.277Z,17.5
2017-08-10T10:43:08.962Z,17.5
2017-08-10T10:44:27.642Z,17.4
2017-08-10T10:45:46.297Z,17.4
2017-08-10T10:47:04.954Z,17.3
2017-08-10T10:48:23.628Z,17.2
2017-08-10T10:49:42.359Z,17.1
2017-08-10T10:51:01.058Z,17
2017-08-10T10:52:19.715Z,17
2017-08-10T10:53:38.363Z,16.9
2017-08-10T10:54:57.044Z,16.8
2017-08-10T10:56:15.745Z,16.6
2017-08-10T10:57:34.437Z,16.5
2017-08-10T10:58:53.131Z,16.4
2017-08-10T11:00:11.805Z,16.4
2017-08-10T11:01:30.535Z,16.4
2017-08-10T11:02:49.199Z,16.4
2017-08-10T11:04:07.869Z,16.4
2017-08-10T11:05:26.549Z,16.4
2017-08-10T11:06:45.215Z,16.3
2017-08-10T11:08:03.913Z,16.3
2017-08-10T11:09:22.576Z,16.3
2017-08-10T11:10:41.263Z,16.3
2017-08-10T11:11:59.944Z,16.2
2017-08-10T11:13:18.640Z,16.1
2017-08-10T11:14:37.292Z,16.1
2017-08-10T11:15:55.967Z,16.1
2017-08-10T11:17:14.621Z,16.1
2017-08-10T11:18:33.270Z,16.1
2017-08-10T11:19:51.939Z,16.1
2017-08-10T11:21:10.616Z,16.2
2017-08-10T11:22:29.321Z,16.1
2017-08-10T11:23:47.977Z,16
2017-08-10T11:25:06.633Z,16
2017-08-10T11:26:25.324Z,16
2017-08-10T11:27:43.974Z,16.2
2017-08-10T11:29:02.667Z,16.2
2017-08-10T11:30:21.323Z,16.3
2017-08-10T11:31:39.993Z,16.4
2017-08-10T11:32:58.720Z,16.4
2017-08-10T11:34:17.383Z,16.5
2017-08-10T11:35:36.056Z,16.5
2017-08-10T11:36:54.726Z,16.5
2017-08-10T11:38:13.379Z,16.6
2017-08-10T11:39:32.036Z,16.6
2017-08-10T11:40:50.685Z,16.7
2017-08-10T11:42:09.372Z,16.7
2017-08-10T11:43:28.029Z,16.6
2017-08-10T11:44:46.732Z,16.3
2017-08-10T11:46:05.455Z,16.2
2017-08-10T11:47:24.130Z,16.2
2017-08-10T11:48:42.786Z,16.2
2017-08-10T11:50:01.437Z,16.3
2017-08-10T11:51:20.141Z,16.3
2017-08-10T11:52:38.822Z,16.3
2017-08-10T11:53:57.537Z,16.2
2017-08-10T11:55:16.194Z,16.2
2017-08-10T11:56:34.892Z,16.2
2017-08-10T11:57:53.630Z,16.2
2017-08-10T11:59:12.278Z,16.1
2017-08-10T12:00:30.938Z,16.2
2017-08-10T12:01:49.586Z,16.3
2017-08-10T12:03:08.261Z,16.3
2017-08-10T12:04:26.953Z,16.3
2017-08-10T12:05:45.611Z,16.4
2017-08-10T12:07:04.288Z,16.4
2017-08-10T12:08:22.963Z,16.5
2017-08-10T12:09:41.619Z,16.5
2017-08-10T12:11:00.324Z,16.8
2017-08-10T12:12:19.033Z,17
2017-08-10T12:13:37.695Z,17
2017-08-10T12:14:56.358Z,16.8
2017-08-10T12:16:15.065Z,16.6
2017-08-10T12:17:33.722Z,16.4
2017-08-10T12:18:52.428Z,16.2
2017-08-10T12:20:11.081Z,16.2
2017-08-10T12:21:29.777Z,16.2
2017-08-10T12:22:48.503Z,16.4
2017-08-10T12:24:07.179Z,16.7
2017-08-10T12:25:25.835Z,17
2017-08-10T12:26:44.490Z,17
2017-08-10T12:28:03.142Z,17.1
2017-08-10T12:29:21.817Z,17.1
2017-08-10T12:30:40.479Z,17.2
2017-08-10T12:31:59.132Z,17.1
2017-08-10T12:33:17.780Z,17.3
2017-08-10T12:34:36.447Z,17.4
2017-08-10T12:35:55.127Z,17.3
2017-08-10T12:37:13.780Z,17.3
2017-08-10T12:38:32.451Z,17.4
2017-08-10T12:39:51.126Z,17.3
2017-08-10T12:41:09.775Z,17.4
2017-08-10T12:42:28.459Z,17.4
2017-08-10T12:43:47.113Z,17.4
2017-08-10T12:45:05.853Z,17.4
2017-08-10T12:46:24.563Z,17.4
2017-08-10T12:47:43.229Z,17.4
2017-08-10T12:49:01.886Z,17.3
2017-08-10T12:50:20.559Z,17.3
2017-08-10T12:51:39.214Z,17.3
2017-08-10T12:52:57.868Z,17.4
2017-08-10T12:54:16.580Z,17.4
2017-08-10T12:55:35.261Z,17.4
2017-08-10T12:56:53.926Z,17.2
2017-08-10T12:58:12.588Z,17.2
2017-08-10T12:59:31.250Z,17.2
2017-08-10T13:00:49.943Z,17.1
2017-08-10T13:02:08.598Z,17
2017-08-10T13:03:27.289Z,16.9
2017-08-10T13:04:45.950Z,16.9
2017-08-10T13:06:04.625Z,16.9
2017-08-10T13:07:23.378Z,16.8
2017-08-10T13:08:42.085Z,16.8
2017-08-10T13:10:00.777Z,16.9
2017-08-10T13:11:19.441Z,16.9
2017-08-10T13:12:38.092Z,17
2017-08-10T13:13:56.753Z,17.1
2017-08-10T13:15:15.405Z,17.1
2017-08-10T13:16:34.081Z,17.2
2017-08-10T13:17:52.788Z,17.5
2017-08-10T13:19:11.487Z,17.7
2017-08-10T13:20:30.142Z,17.8
2017-08-10T13:21:48.819Z,17.9
2017-08-10T13:23:07.487Z,18
2017-08-10T13:24:26.155Z,18
2017-08-10T13:25:44.886Z,18
2017-08-10T13:27:03.556Z,18
2017-08-10T13:28:22.224Z,17.8
2017-08-10T13:29:40.875Z,17.7
2017-08-10T13:30:59.575Z,17.7
2017-08-10T13:32:18.306Z,17.7
2017-08-10T13:33:36.980Z,17.6
2017-08-10T13:34:55.638Z,17.6
2017-08-10T13:36:14.293Z,17.4
2017-08-10T13:37:33.001Z,17.2
2017-08-10T13:38:51.660Z,17.1
2017-08-10T13:40:10.314Z,17.1
2017-08-10T13:41:28.987Z,17
2017-08-10T13:42:47.663Z,17
2017-08-10T13:44:06.318Z,17
2017-08-10T13:45:24.982Z,16.9
2017-08-10T13:46:43.641Z,16.8
2017-08-10T13:48:02.348Z,16.8
2017-08-10T13:49:21.042Z,16.8
2017-08-10T13:50:39.737Z,16.8
2017-08-10T13:51:58.393Z,16.8
2017-08-10T13:53:17.098Z,16.8
2017-08-10T13:54:35.752Z,16.9
2017-08-10T13:55:54.407Z,16.9
2017-08-10T13:57:13.170Z,16.8
2017-08-10T13:58:31.893Z,16.9
2017-08-10T13:59:50.569Z,17
2017-08-10T14:01:09.230Z,17
2017-08-10T14:02:27.890Z,17
2017-08-10T14:03:46.580Z,17
2017-08-10T14:05:05.233Z,16.9
2017-08-10T14:06:23.916Z,16.8
2017-08-10T14:07:42.572Z,16.7
2017-08-10T14:09:01.239Z,16.7
2017-08-10T14:10:19.890Z,16.6
2017-08-10T14:11:38.546Z,16.6
2017-08-10T14:12:57.222Z,16.6
2017-08-10T14:14:15.898Z,16.6
2017-08-10T14:15:34.610Z,16.6
2017-08-10T14:16:53.318Z,16.6
2017-08-10T14:18:12.007Z,16.5
2017-08-10T14:19:30.680Z,16.4
2017-08-10T14:20:49.332Z,16.5
2017-08-10T14:22:08.044Z,16.5
2017-08-10T14:23:26.701Z,16.4
2017-08-10T14:24:45.402Z,16.5
2017-08-10T14:26:04.112Z,16.4
2017-08-10T14:27:22.810Z,16.4
2017-08-10T14:28:41.491Z,16.5
2017-08-10T14:30:00.204Z,16.4
2017-08-10T14:31:18.852Z,16.4
2017-08-10T14:32:37.528Z,16.4
2017-08-10T14:33:56.233Z,16.4
2017-08-10T14:35:14.907Z,16.3
2017-08-10T14:36:33.569Z,16.2
2017-08-10T14:37:52.221Z,16.2
2017-08-10T14:39:10.873Z,16.1
2017-08-10T14:40:29.568Z,16
2017-08-10T14:41:48.222Z,16
2017-08-10T14:43:06.876Z,16
2017-08-10T14:44:25.558Z,16
2017-08-10T14:45:44.230Z,16
2017-08-10T14:47:02.943Z,15.9
2017-08-10T14:48:21.596Z,15.9
2017-08-10T14:49:40.290Z,15.8
2017-08-10T14:50:58.961Z,15.7
2017-08-10T14:52:17.618Z,15.7
2017-08-10T14:53:36.271Z,15.6
2017-08-10T14:54:54.953Z,15.6
2017-08-10T14:56:13.679Z,15.6
2017-08-10T14:57:32.338Z,15.6
2017-08-10T14:58:51.052Z,15.6
2017-08-10T15:00:09.763Z,15.6
2017-08-10T15:01:28.430Z,15.7
2017-08-10T15:02:47.084Z,15.7
2017-08-10T15:04:05.744Z,15.7
2017-08-10T15:05:24.485Z,15.7
2017-08-10T15:06:43.169Z,15.6
2017-08-10T15:08:01.843Z,15.5
2017-08-10T15:09:20.509Z,15.3
2017-08-10T15:10:39.167Z,15.2
2017-08-10T15:11:57.898Z,15.2
2017-08-10T15:13:16.553Z,15.2
2017-08-10T15:14:35.241Z,15.1
2017-08-10T15:15:53.972Z,15
2017-08-10T15:17:12.647Z,14.9
2017-08-10T15:18:31.346Z,14.9
2017-08-10T15:19:49.997Z,14.9
2017-08-10T15:21:08.704Z,14.9
2017-08-10T15:22:27.406Z,14.9
2017-08-10T15:23:46.074Z,14.9
2017-08-10T15:25:04.730Z,14.9
2017-08-10T15:26:23.386Z,14.9
2017-08-10T15:27:42.101Z,14.9
2017-08-10T15:29:00.754Z,14.9
2017-08-10T15:30:19.439Z,14.9
2017-08-10T15:31:38.130Z,14.9
2017-08-10T15:32:56.824Z,14.9
2017-08-10T15:34:15.506Z,14.9
2017-08-10T15:35:34.189Z,15
2017-08-10T15:36:52.839Z,15
2017-08-10T15:38:11.505Z,15
2017-08-10T15:39:30.160Z,15
2017-08-10T15:40:48.859Z,15.1
2017-08-10T15:42:07.535Z,15.1
2017-08-10T15:43:26.211Z,15.1
2017-08-10T15:44:44.927Z,15.1
2017-08-10T15:46:03.635Z,15.1
2017-08-10T15:47:22.336Z,15.1
2017-08-10T15:48:41.014Z,15.1
2017-08-10T15:49:59.677Z,15.2
2017-08-10T15:51:18.337Z,15.2
2017-08-10T15:52:36.988Z,15.1
2017-08-10T15:53:55.662Z,15.1
2017-08-10T15:55:14.337Z,15.1
2017-08-10T15:56:32.995Z,15.1
2017-08-10T15:57:51.651Z,15.1
2017-08-10T15:59:10.382Z,15.1
2017-08-10T16:00:29.105Z,15.1
2017-08-10T16:01:47.761Z,15.1
2017-08-10T16:03:06.438Z,15.1
2017-08-10T16:04:25.171Z,15.1
2017-08-10T16:05:43.826Z,15.1
2017-08-10T16:07:02.537Z,15.1
2017-08-10T16:08:21.194Z,15.2
2017-08-10T16:09:39.868Z,15.2
2017-08-10T16:10:58.549Z,15.2
2017-08-10T16:12:17.204Z,15.2
2017-08-10T16:13:35.859Z,15.2
2017-08-10T16:14:54.536Z,15.2
2017-08-10T16:16:13.186Z,15.2
2017-08-10T16:17:31.878Z,15.1
2017-08-10T16:18:50.554Z,15.1
2017-08-10T16:20:09.306Z,15.1
2017-08-10T16:21:28.005Z,15.1
2017-08-10T16:22:46.654Z,15.1
2017-08-10T16:24:05.305Z,15.1
2017-08-10T16:25:23.986Z,15.1
2017-08-10T16:26:42.682Z,15.1
2017-08-10T16:28:01.406Z,15.1
2017-08-10T16:29:20.092Z,15
2017-08-10T16:30:38.766Z,15
2017-08-10T16:31:57.487Z,14.9
2017-08-10T16:33:16.138Z,14.9
2017-08-10T16:34:34.864Z,14.9
2017-08-10T16:35:53.540Z,14.8
2017-08-10T16:37:12.239Z,14.8
2017-08-10T16:38:30.900Z,14.8
2017-08-10T16:39:49.559Z,14.8
2017-08-10T16:41:08.224Z,14.8
2017-08-10T16:42:26.883Z,14.8
2017-08-10T16:43:45.540Z,14.8
2017-08-10T16:45:04.245Z,14.8
2017-08-10T16:46:22.976Z,14.8
2017-08-10T16:47:41.629Z,14.8
2017-08-10T16:49:00.340Z,14.8
2017-08-10T16:50:19.092Z,14.8
2017-08-10T16:51:37.765Z,14.8
2017-08-10T16:52:56.471Z,14.8
2017-08-10T16:54:15.126Z,14.8
2017-08-10T16:55:33.799Z,14.8
2017-08-10T16:56:52.479Z,14.7
2017-08-10T16:58:11.150Z,14.7
2017-08-10T16:59:29.817Z,14.7
2017-08-10T17:00:48.473Z,14.7
2017-08-10T17:02:07.154Z,14.7
2017-08-10T17:03:25.812Z,14.7
2017-08-10T17:04:44.470Z,14.6
2017-08-10T17:06:03.142Z,14.6
2017-08-10T17:07:21.816Z,14.6
2017-08-10T17:08:40.531Z,14.5
2017-08-10T17:09:59.220Z,14.5
2017-08-10T17:11:17.879Z,14.5
2017-08-10T17:12:36.553Z,14.5
2017-08-10T17:13:55.210Z,14.5
2017-08-10T17:15:13.900Z,14.4
2017-08-10T17:16:32.577Z,14.4
2017-08-10T17:17:51.339Z,14.4
2017-08-10T17:19:10.046Z,14.4
2017-08-10T17:20:28.710Z,14.4
2017-08-10T17:21:47.381Z,14.4
2017-08-10T17:23:06.111Z,14.3
2017-08-10T17:24:24.773Z,14.4
2017-08-10T17:25:43.424Z,14.3
2017-08-10T17:27:02.082Z,14.3
2017-08-10T17:28:20.793Z,14.3
2017-08-10T17:29:39.454Z,14.3
2017-08-10T17:30:58.157Z,14.2
2017-08-10T17:32:16.814Z,14.2
2017-08-10T17:33:35.489Z,14.2